createdAt,value
2019-02-11T00:00:56.459Z,3.60
2019-02-11T00:03:27.235Z,3.70
2019-02-11T00:05:57.136Z,3.70
2019-02-11T00:08:26.923Z,3.70
2019-02-11T00:10:59.717Z,3.70
2019-02-11T00:13:29.810Z,3.70
2019-02-11T00:15:59.661Z,3.80
2019-02-11T00:18:29.430Z,3.80
2019-02-11T00:20:59.350Z,3.70
2019-02-11T00:23:29.339Z,3.70
2019-02-11T00:25:59.650Z,3.80
2019-02-11T00:28:29.659Z,3.80
2019-02-11T00:30:59.821Z,3.70
2019-02-11T00:33:30.166Z,3.60
2019-02-11T00:35:59.974Z,3.60
2019-02-11T00:38:30.031Z,3.50
2019-02-11T00:40:59.851Z,3.60
2019-02-11T00:43:30.766Z,3.60
2019-02-11T00:46:00.573Z,3.50
2019-02-11T00:48:30.422Z,3.40
2019-02-11T00:51:00.546Z,3.40
2019-02-11T00:53:30.462Z,3.50
2019-02-11T00:56:00.971Z,3.50
2019-02-11T00:58:30.911Z,3.50
2019-02-11T01:01:01.046Z,3.50
2019-02-11T01:03:31.236Z,3.50
2019-02-11T01:06:01.082Z,3.50
2019-02-11T01:08:31.014Z,3.50
2019-02-11T01:11:00.790Z,3.50
2019-02-11T01:13:30.743Z,3.60
2019-02-11T01:16:01.115Z,3.60
2019-02-11T01:18:31.783Z,3.60
2019-02-11T01:21:02.119Z,3.60
2019-02-11T01:23:32.090Z,3.70
2019-02-11T01:26:01.910Z,3.70
2019-02-11T01:28:31.929Z,3.70
2019-02-11T01:31:02.198Z,3.70
2019-02-11T01:33:32.349Z,3.80
2019-02-11T01:36:02.038Z,3.80
2019-02-11T01:38:31.777Z,3.70
2019-02-11T01:41:02.477Z,3.70
2019-02-11T01:43:36.164Z,3.70
2019-02-11T01:46:04.234Z,3.70
2019-02-11T01:48:33.939Z,3.80
2019-02-11T01:51:03.868Z,3.80
2019-02-11T01:53:33.577Z,3.70
2019-02-11T01:56:03.506Z,3.80
2019-02-11T01:58:33.297Z,3.90
2019-02-11T02:01:03.058Z,3.80
2019-02-11T02:03:33.117Z,3.80
2019-02-11T02:06:02.889Z,3.90
2019-02-11T02:08:32.611Z,3.90
2019-02-11T02:11:02.692Z,3.90
2019-02-11T02:13:32.580Z,3.90
2019-02-11T02:16:02.613Z,3.90
2019-02-11T02:18:32.650Z,4.00
2019-02-11T02:21:02.882Z,4.00
2019-02-11T02:23:32.933Z,4.00
2019-02-11T02:26:02.802Z,3.90
2019-02-11T02:28:32.592Z,3.90
2019-02-11T02:31:02.367Z,3.90
2019-02-11T02:33:32.415Z,4.00
2019-02-11T02:36:02.202Z,3.90
2019-02-11T02:38:31.938Z,3.90
2019-02-11T02:41:01.892Z,3.90
2019-02-11T02:43:31.771Z,3.80
2019-02-11T02:46:01.534Z,3.80
2019-02-11T02:48:31.339Z,3.80
2019-02-11T02:51:01.382Z,3.80
2019-02-11T02:53:31.113Z,3.90
2019-02-11T02:56:00.807Z,3.90
2019-02-11T02:58:30.674Z,3.80
2019-02-11T03:01:00.989Z,3.80
2019-02-11T03:03:31.049Z,3.90
2019-02-11T03:06:00.989Z,3.90
2019-02-11T03:08:31.103Z,3.90
2019-02-11T03:11:01.054Z,3.80
2019-02-11T03:13:31.093Z,3.80
2019-02-11T03:16:00.950Z,3.80
2019-02-11T03:18:30.665Z,3.80
2019-02-11T03:21:00.398Z,3.80
2019-02-11T03:23:30.254Z,3.80
2019-02-11T03:25:59.947Z,3.80
2019-02-11T03:28:29.663Z,3.80
2019-02-11T03:30:59.853Z,3.80
2019-02-11T03:33:29.914Z,3.80
2019-02-11T03:35:59.670Z,3.80
2019-02-11T03:38:29.573Z,3.80
2019-02-11T03:40:59.774Z,3.90
2019-02-11T03:43:29.811Z,3.80
2019-02-11T03:45:59.678Z,3.80
2019-02-11T03:48:29.446Z,3.70
2019-02-11T03:50:59.408Z,3.60
2019-02-11T03:53:29.631Z,3.60
2019-02-11T03:55:59.509Z,3.60
2019-02-11T03:58:29.371Z,3.60
2019-02-11T04:00:59.691Z,3.60
2019-02-11T04:03:29.738Z,3.60
2019-02-11T04:05:59.501Z,3.60
2019-02-11T04:08:29.990Z,3.70
2019-02-11T04:10:59.826Z,3.60
2019-02-11T04:13:29.550Z,3.60
2019-02-11T04:15:59.243Z,3.70
2019-02-11T04:18:28.959Z,3.70
2019-02-11T04:20:58.742Z,3.70
2019-02-11T04:23:29.040Z,3.60
2019-02-11T04:25:58.889Z,3.60
2019-02-11T04:28:28.657Z,3.60
2019-02-11T04:30:58.468Z,3.60
2019-02-11T04:33:28.268Z,3.50
2019-02-11T04:35:58.214Z,3.60
2019-02-11T04:38:28.005Z,3.60
2019-02-11T04:40:57.756Z,3.60
2019-02-11T04:43:27.857Z,3.60
2019-02-11T04:45:57.545Z,3.60
2019-02-11T04:48:27.613Z,3.70
2019-02-11T04:50:57.359Z,3.70
2019-02-11T04:53:27.134Z,3.60
2019-02-11T04:55:56.847Z,3.60
2019-02-11T04:58:26.558Z,3.60
2019-02-11T05:00:56.869Z,3.60
2019-02-11T05:03:26.973Z,3.60
2019-02-11T05:05:57.022Z,3.60
2019-02-11T05:08:26.732Z,3.60
2019-02-11T05:10:56.449Z,3.70
2019-02-11T05:13:26.199Z,3.60
2019-02-11T05:15:56.774Z,3.60
2019-02-11T05:18:26.795Z,3.60
2019-02-11T05:20:57.034Z,3.50
2019-02-11T05:23:26.745Z,3.50
2019-02-11T05:25:56.493Z,3.60
2019-02-11T05:28:26.531Z,3.60
2019-02-11T05:30:56.298Z,3.60
2019-02-11T05:33:26.062Z,3.60
2019-02-11T05:35:56.080Z,3.60
2019-02-11T05:38:26.081Z,3.60
2019-02-11T05:40:55.779Z,3.60
2019-02-11T05:43:25.760Z,3.60
2019-02-11T05:45:55.618Z,3.60
2019-02-11T05:48:25.366Z,3.60
2019-02-11T05:50:55.181Z,3.70
2019-02-11T05:53:25.078Z,3.70
2019-02-11T05:55:54.782Z,3.60
2019-02-11T05:58:24.854Z,3.60
2019-02-11T06:00:54.536Z,3.70
2019-02-11T06:03:24.383Z,3.70
2019-02-11T06:05:54.438Z,3.70
2019-02-11T06:08:24.191Z,3.60
2019-02-11T06:10:53.957Z,3.60
2019-02-11T06:13:23.714Z,3.70
2019-02-11T06:15:53.651Z,3.60
2019-02-11T06:18:23.754Z,3.60
2019-02-11T06:20:53.898Z,3.70
2019-02-11T06:23:23.646Z,3.70
2019-02-11T06:25:53.612Z,3.80
2019-02-11T06:28:23.420Z,3.70
2019-02-11T06:30:53.192Z,3.70
2019-02-11T06:33:22.920Z,3.70
2019-02-11T06:35:52.631Z,3.70
2019-02-11T06:38:22.462Z,3.70
2019-02-11T06:40:52.191Z,3.70
2019-02-11T06:43:21.993Z,3.70
2019-02-11T06:45:52.338Z,3.60
2019-02-11T06:48:22.076Z,3.60
2019-02-11T06:50:52.010Z,3.60
2019-02-11T06:53:21.994Z,3.60
2019-02-11T06:55:51.719Z,3.60
2019-02-11T06:58:21.732Z,3.60
2019-02-11T07:00:51.747Z,3.60
2019-02-11T07:03:21.555Z,3.60
2019-02-11T07:05:51.353Z,3.60
2019-02-11T07:08:21.057Z,3.70
2019-02-11T07:10:55.665Z,3.70
2019-02-11T07:13:23.468Z,3.60
2019-02-11T07:15:53.662Z,3.70
2019-02-11T07:18:23.469Z,3.70
2019-02-11T07:20:53.434Z,3.60
2019-02-11T07:23:23.186Z,3.70
2019-02-11T07:25:53.367Z,3.70
2019-02-11T07:28:23.090Z,3.60
2019-02-11T07:30:53.050Z,3.60
2019-02-11T07:33:23.482Z,3.70
2019-02-11T07:35:53.435Z,3.70
2019-02-11T07:38:23.410Z,3.60
2019-02-11T07:40:53.519Z,3.60
2019-02-11T07:43:27.230Z,3.50
2019-02-11T07:46:07.931Z,3.60
2019-02-11T07:48:37.713Z,3.70
2019-02-11T07:51:07.520Z,3.70
2019-02-11T07:53:38.023Z,3.60
2019-02-11T07:56:08.247Z,3.60
2019-02-11T07:58:38.224Z,3.60
2019-02-11T08:01:08.171Z,3.50
2019-02-11T08:03:38.143Z,3.50
2019-02-11T08:06:09.209Z,3.50
2019-02-11T08:08:39.578Z,3.50
2019-02-11T08:11:09.346Z,3.50
2019-02-11T08:13:39.638Z,3.60
2019-02-11T08:16:09.444Z,3.50
2019-02-11T08:18:39.237Z,3.50
2019-02-11T08:21:09.031Z,3.50
2019-02-11T08:23:38.926Z,3.60
2019-02-11T08:26:08.843Z,3.60
2019-02-11T08:28:38.952Z,3.70
2019-02-11T08:31:09.010Z,3.60
2019-02-11T08:33:39.138Z,3.60
2019-02-11T08:36:09.118Z,3.60
2019-02-11T08:38:39.420Z,3.60
2019-02-11T08:41:09.455Z,3.60
2019-02-11T08:43:39.291Z,3.60
2019-02-11T08:46:09.466Z,3.60
2019-02-11T08:48:39.230Z,3.50
2019-02-11T08:51:09.250Z,3.50
2019-02-11T08:53:38.995Z,3.50
2019-02-11T08:56:08.956Z,3.50
2019-02-11T08:58:38.834Z,3.50
2019-02-11T09:01:08.832Z,3.50
2019-02-11T09:03:38.635Z,3.50
2019-02-11T09:06:08.503Z,3.60
2019-02-11T09:08:38.482Z,3.70
2019-02-11T09:11:08.258Z,3.70
2019-02-11T09:13:38.353Z,3.70
2019-02-11T09:16:08.269Z,3.60
2019-02-11T09:18:38.319Z,3.70
2019-02-11T09:21:08.173Z,3.60
2019-02-11T09:23:38.266Z,3.70
2019-02-11T09:26:08.250Z,3.70
2019-02-11T09:28:38.278Z,3.70
2019-02-11T09:31:08.422Z,3.70
2019-02-11T09:33:38.222Z,3.80
2019-02-11T09:36:08.116Z,3.70
2019-02-11T09:38:38.200Z,3.70
2019-02-11T09:41:08.449Z,3.80
2019-02-11T09:43:38.484Z,3.80
2019-02-11T09:46:08.634Z,3.90
2019-02-11T09:48:38.462Z,3.90
2019-02-11T09:51:08.622Z,3.80
2019-02-11T09:53:39.068Z,3.80
2019-02-11T09:56:09.054Z,3.90
2019-02-11T09:58:39.162Z,3.90
2019-02-11T10:01:08.938Z,3.90
2019-02-11T10:03:38.942Z,3.90
2019-02-11T10:06:08.764Z,3.90
2019-02-11T10:08:38.592Z,4.00
2019-02-11T10:11:08.369Z,4.00
2019-02-11T10:13:38.459Z,4.10
2019-02-11T10:16:12.598Z,4.10
2019-02-11T10:18:39.666Z,4.10
2019-02-11T10:21:09.604Z,4.20
2019-02-11T10:23:39.535Z,4.20
2019-02-11T10:26:09.644Z,4.30
2019-02-11T10:28:39.413Z,4.40
2019-02-11T10:31:09.586Z,4.30
2019-02-11T10:33:39.409Z,4.30
2019-02-11T10:36:09.267Z,4.40
2019-02-11T10:38:39.096Z,4.30
2019-02-11T10:41:08.855Z,4.30
2019-02-11T10:43:38.869Z,4.40
2019-02-11T10:46:08.757Z,4.50
2019-02-11T10:48:38.579Z,4.60
2019-02-11T10:51:08.747Z,4.60
2019-02-11T10:53:38.526Z,4.60
2019-02-11T10:56:08.790Z,4.60
2019-02-11T10:58:38.618Z,4.70
2019-02-11T11:01:08.412Z,4.70
2019-02-11T11:03:38.612Z,4.70
2019-02-11T11:06:08.747Z,4.70
2019-02-11T11:08:38.875Z,4.70
2019-02-11T11:11:08.770Z,4.70
2019-02-11T11:13:38.899Z,4.70
2019-02-11T11:16:09.057Z,4.70
2019-02-11T11:18:39.251Z,4.70
2019-02-11T11:21:10.303Z,4.60
2019-02-11T11:23:40.295Z,4.60
2019-02-11T11:26:10.345Z,4.60
2019-02-11T11:28:40.616Z,4.70
2019-02-11T11:31:10.679Z,4.60
2019-02-11T11:33:40.670Z,4.70
2019-02-11T11:36:10.690Z,4.70
2019-02-11T11:38:40.541Z,4.80
2019-02-11T11:41:10.544Z,4.80
2019-02-11T11:43:40.975Z,4.70
2019-02-11T11:46:10.882Z,4.70
2019-02-11T11:48:40.620Z,4.70
2019-02-11T11:51:10.710Z,4.80
2019-02-11T11:53:40.531Z,4.80
2019-02-11T11:56:10.357Z,4.70
2019-02-11T11:58:40.214Z,4.90
2019-02-11T12:01:10.185Z,4.90
2019-02-11T12:03:39.965Z,4.90
2019-02-11T12:06:09.905Z,4.90
2019-02-11T12:08:39.708Z,4.90
2019-02-11T12:11:09.605Z,4.90
2019-02-11T12:13:39.644Z,4.90
2019-02-11T12:16:09.507Z,4.80
2019-02-11T12:18:39.249Z,4.90
2019-02-11T12:21:09.336Z,4.90
2019-02-11T12:23:39.207Z,4.90
2019-02-11T12:26:09.095Z,4.80
2019-02-11T12:28:39.346Z,4.90
2019-02-11T12:31:09.150Z,4.90
2019-02-11T12:33:38.913Z,4.70
2019-02-11T12:36:08.905Z,4.70
2019-02-11T12:38:38.696Z,4.70
2019-02-11T12:41:08.746Z,4.70
2019-02-11T12:43:38.525Z,4.60
2019-02-11T12:46:08.390Z,4.70
2019-02-11T12:48:38.440Z,4.80
2019-02-11T12:51:08.370Z,4.80
2019-02-11T12:53:38.119Z,4.80
2019-02-11T12:56:08.339Z,4.70
2019-02-11T12:58:38.053Z,4.70
2019-02-11T13:01:08.301Z,4.60
2019-02-11T13:03:38.083Z,4.70
2019-02-11T13:06:08.033Z,4.80
2019-02-11T13:08:37.918Z,4.70
2019-02-11T13:11:07.697Z,4.80
2019-02-11T13:13:37.775Z,4.80
2019-02-11T13:16:07.633Z,4.70
2019-02-11T13:18:39.355Z,4.70
2019-02-11T13:21:08.969Z,4.70
2019-02-11T13:23:38.757Z,4.60
2019-02-11T13:26:08.493Z,4.60
2019-02-11T13:28:38.425Z,4.60
2019-02-11T13:31:08.513Z,4.70
2019-02-11T13:33:38.262Z,5.00
2019-02-11T13:36:08.535Z,5.20
2019-02-11T13:38:38.348Z,5.70
2019-02-11T13:41:08.237Z,6.10
2019-02-11T13:43:38.057Z,6.30
2019-02-11T13:46:08.014Z,6.20
2019-02-11T13:48:37.999Z,5.90
2019-02-11T13:51:07.891Z,5.80
2019-02-11T13:53:37.658Z,5.70
2019-02-11T13:56:08.239Z,5.60
2019-02-11T13:58:38.482Z,5.70
2019-02-11T14:01:11.142Z,6.00
2019-02-11T14:03:41.039Z,6.10
2019-02-11T14:06:11.016Z,6.00
2019-02-11T14:08:41.071Z,5.60
2019-02-11T14:11:11.193Z,5.60
2019-02-11T14:13:41.258Z,5.50
2019-02-11T14:16:11.082Z,5.50
2019-02-11T14:18:40.868Z,5.50
2019-02-11T14:21:11.275Z,5.40
2019-02-11T14:23:41.041Z,5.40
2019-02-11T14:26:10.965Z,5.30
2019-02-11T14:28:40.809Z,5.30
2019-02-11T14:31:10.944Z,5.50
2019-02-11T14:33:40.795Z,5.50
2019-02-11T14:36:10.659Z,5.50
2019-02-11T14:38:40.626Z,5.50
2019-02-11T14:41:10.401Z,5.60
2019-02-11T14:43:40.216Z,5.70
2019-02-11T14:46:10.047Z,5.70
2019-02-11T14:48:39.749Z,5.70
2019-02-11T14:51:09.486Z,5.60
2019-02-11T14:53:39.229Z,5.70
2019-02-11T14:56:09.106Z,5.70
2019-02-11T14:58:38.810Z,5.70
2019-02-11T15:01:09.208Z,5.70
2019-02-11T15:03:39.276Z,5.60
2019-02-11T15:06:09.647Z,5.60
2019-02-11T15:08:39.455Z,5.50
2019-02-11T15:11:09.192Z,5.50
2019-02-11T15:13:38.937Z,5.50
2019-02-11T15:16:08.835Z,5.40
2019-02-11T15:18:38.607Z,5.40
2019-02-11T15:21:08.523Z,5.40
2019-02-11T15:23:38.902Z,5.40
2019-02-11T15:26:08.674Z,5.40
2019-02-11T15:28:38.554Z,5.30
2019-02-11T15:31:08.262Z,5.40
2019-02-11T15:33:38.010Z,5.40
2019-02-11T15:36:08.166Z,5.30
2019-02-11T15:38:37.994Z,5.30
2019-02-11T15:41:07.826Z,5.10
2019-02-11T15:43:37.761Z,5.10
2019-02-11T15:46:07.538Z,5.10
2019-02-11T15:48:42.806Z,5.20
2019-02-11T15:51:09.864Z,5.10
2019-02-11T15:53:39.784Z,5.10
2019-02-11T15:56:09.574Z,5.10
2019-02-11T15:58:39.410Z,5.00
2019-02-11T16:01:09.375Z,5.00
2019-02-11T16:03:39.482Z,5.00
2019-02-11T16:06:10.635Z,4.90
2019-02-11T16:08:40.814Z,5.00
2019-02-11T16:11:10.970Z,4.90
2019-02-11T16:13:41.095Z,4.90
2019-02-11T16:16:11.075Z,4.80
2019-02-11T16:18:41.400Z,4.80
2019-02-11T16:21:11.196Z,4.80
2019-02-11T16:23:41.628Z,4.80
2019-02-11T16:26:11.757Z,4.70
2019-02-11T16:28:41.720Z,4.70
2019-02-11T16:31:12.053Z,4.80
2019-02-11T16:33:42.095Z,4.90
2019-02-11T16:36:14.030Z,4.90
2019-02-11T16:38:43.758Z,4.80
2019-02-11T16:41:13.490Z,4.80
2019-02-11T16:43:44.153Z,4.80
2019-02-11T16:46:13.867Z,4.80
2019-02-11T16:55:01.230Z,4.80
2019-02-11T16:57:31.182Z,4.80
2019-02-11T17:00:00.910Z,4.80
2019-02-11T17:02:30.590Z,4.80
2019-02-11T17:05:00.333Z,4.70
2019-02-11T17:07:30.070Z,4.70
2019-02-11T17:09:59.883Z,4.70
2019-02-11T17:12:29.937Z,4.60
2019-02-11T17:15:00.561Z,4.60
2019-02-11T17:17:30.287Z,4.50
2019-02-11T17:20:00.072Z,4.50
2019-02-11T17:22:29.776Z,4.40
2019-02-11T17:24:59.583Z,4.50
2019-02-11T17:27:29.371Z,4.50
2019-02-11T17:29:59.096Z,4.60
2019-02-11T17:32:29.038Z,4.60
2019-02-11T17:34:59.028Z,4.60
2019-02-11T17:37:28.786Z,4.70
2019-02-11T17:39:59.515Z,4.70
2019-02-11T17:42:29.341Z,4.70
2019-02-11T17:44:59.050Z,4.80
2019-02-11T17:47:28.838Z,4.80
2019-02-11T17:49:58.650Z,4.90
2019-02-11T17:52:28.687Z,4.90
2019-02-11T17:54:58.718Z,4.70
2019-02-11T17:57:28.475Z,4.70
2019-02-11T17:59:58.197Z,4.70
2019-02-11T18:02:28.162Z,4.60
2019-02-11T18:04:57.934Z,4.60
2019-02-11T18:07:27.698Z,4.60
2019-02-11T18:09:57.420Z,4.60
2019-02-11T18:12:27.098Z,4.80
2019-02-11T18:14:56.958Z,4.70
2019-02-11T18:17:26.778Z,4.70
2019-02-11T18:19:56.825Z,4.60
2019-02-11T18:22:26.511Z,4.60
2019-02-11T18:24:56.475Z,4.60
2019-02-11T18:27:26.240Z,4.60
2019-02-11T18:29:57.611Z,4.60
2019-02-11T18:32:27.743Z,4.60
2019-02-11T18:34:57.594Z,4.60
2019-02-11T18:37:27.738Z,4.50
2019-02-11T18:39:57.454Z,4.50
2019-02-11T18:42:27.233Z,4.40
2019-02-11T18:44:56.929Z,4.50
2019-02-11T18:47:27.211Z,4.40
2019-02-11T18:49:56.976Z,4.30
2019-02-11T18:52:26.786Z,4.40
2019-02-11T18:54:56.587Z,4.30
2019-02-11T18:57:26.560Z,4.40
2019-02-11T18:59:56.997Z,4.30
2019-02-11T19:02:27.038Z,4.40
2019-02-11T19:04:56.978Z,4.40
2019-02-11T19:07:26.682Z,4.30
2019-02-11T19:09:56.469Z,4.20
2019-02-11T19:12:26.171Z,4.30
2019-02-11T19:14:55.862Z,4.30
2019-02-11T19:17:25.577Z,4.20
2019-02-11T19:19:55.409Z,4.20
2019-02-11T19:22:25.194Z,4.20
2019-02-11T19:24:54.970Z,4.10
2019-02-11T19:27:24.700Z,4.20
2019-02-11T19:29:54.385Z,4.10
2019-02-11T19:32:24.139Z,4.10
2019-02-11T19:34:54.205Z,4.10
2019-02-11T19:37:24.398Z,4.20
2019-02-11T19:39:54.567Z,4.20
2019-02-11T19:42:24.306Z,4.20
2019-02-11T19:44:53.994Z,4.20
2019-02-11T19:47:23.829Z,4.30
2019-02-11T19:49:53.650Z,4.30
2019-02-11T19:52:23.485Z,4.30
2019-02-11T19:54:53.271Z,4.40
2019-02-11T19:57:24.495Z,4.50
2019-02-11T19:59:54.238Z,4.50
2019-02-11T20:02:24.395Z,4.50
2019-02-11T20:04:54.432Z,4.60
2019-02-11T20:07:24.223Z,4.60
2019-02-11T20:09:54.203Z,4.50
2019-02-11T20:12:24.093Z,4.40
2019-02-11T20:14:54.934Z,4.50
2019-02-11T20:17:25.126Z,4.40
2019-02-11T20:20:00.149Z,4.30
2019-02-11T20:22:26.333Z,4.30
2019-02-11T20:24:56.329Z,4.30
2019-02-11T20:27:26.142Z,4.40
2019-02-11T20:29:56.006Z,4.40
2019-02-11T20:32:26.023Z,4.40
2019-02-11T20:34:56.102Z,4.40
2019-02-11T20:37:26.096Z,4.40
2019-02-11T20:40:03.148Z,4.50
2019-02-11T20:42:27.426Z,4.20
2019-02-11T20:44:58.942Z,4.30
2019-02-11T20:47:29.337Z,4.30
2019-02-11T20:49:59.137Z,4.30
2019-02-11T20:52:29.498Z,4.30
2019-02-11T20:54:59.759Z,4.40
2019-02-11T20:57:29.483Z,4.30
2019-02-11T20:59:59.867Z,4.40
2019-02-11T21:02:29.959Z,4.40
2019-02-11T21:04:59.784Z,4.40
2019-02-11T21:07:29.551Z,4.50
2019-02-11T21:09:59.346Z,4.60
2019-02-11T21:12:29.058Z,4.70
2019-02-11T21:14:59.182Z,4.70
2019-02-11T21:17:29.249Z,4.40
2019-02-11T21:19:59.294Z,3.70
2019-02-11T21:22:32.191Z,3.30
2019-02-11T21:25:03.618Z,3.00
2019-02-11T21:27:33.574Z,2.90
2019-02-11T21:30:03.433Z,2.90
2019-02-11T21:32:33.717Z,2.90
2019-02-11T21:35:05.331Z,3.00
2019-02-11T21:37:35.332Z,3.10
2019-02-11T21:40:05.423Z,3.10
2019-02-11T21:42:35.520Z,3.20
2019-02-11T21:45:05.562Z,3.20
2019-02-11T21:47:35.579Z,3.30
2019-02-11T21:50:06.662Z,3.30
2019-02-11T21:52:36.526Z,3.40
2019-02-11T21:55:08.019Z,3.40
2019-02-11T21:57:37.794Z,3.40
2019-02-11T22:00:09.757Z,3.40
2019-02-11T22:02:39.486Z,3.30
2019-02-11T22:05:09.377Z,3.30
2019-02-11T22:07:39.595Z,3.40
2019-02-11T22:10:11.472Z,3.40
2019-02-11T22:12:41.791Z,3.40
2019-02-11T22:15:16.150Z,3.40
2019-02-11T22:17:46.013Z,3.40
2019-02-11T22:20:17.148Z,3.40
2019-02-11T22:22:47.126Z,3.40
2019-02-11T22:25:17.102Z,3.40
2019-02-11T22:27:47.404Z,3.40
2019-02-11T22:30:18.807Z,3.30
2019-02-11T22:32:48.581Z,3.40
2019-02-11T22:35:18.421Z,3.30
2019-02-11T22:37:48.816Z,3.10
2019-02-11T22:40:18.742Z,3.10
2019-02-11T22:42:49.031Z,3.10
2019-02-11T22:45:20.780Z,3.00
2019-02-11T22:47:50.576Z,3.00
2019-02-11T22:50:20.611Z,2.90
2019-02-11T22:52:50.450Z,2.80
2019-02-11T22:55:20.282Z,2.80
2019-02-11T22:57:50.174Z,2.70
2019-02-11T23:00:42.081Z,2.80
2019-02-11T23:03:12.048Z,2.90
2019-02-11T23:05:42.628Z,2.70
2019-02-11T23:08:13.046Z,2.70
2019-02-11T23:10:45.478Z,2.70
2019-02-11T23:13:15.443Z,2.70
2019-02-11T23:15:48.014Z,2.60
2019-02-11T23:18:17.963Z,2.60
2019-02-11T23:20:51.973Z,2.50
2019-02-11T23:23:19.789Z,2.50
2019-02-11T23:25:49.726Z,2.60
2019-02-11T23:28:19.418Z,2.60
2019-02-11T23:30:49.158Z,2.60
2019-02-11T23:33:19.051Z,2.60
2019-02-11T23:35:48.849Z,2.60
2019-02-11T23:38:18.958Z,2.70
2019-02-11T23:40:48.858Z,2.60
2019-02-11T23:43:21.318Z,2.60
2019-02-11T23:45:51.335Z,2.70
2019-02-11T23:48:21.443Z,2.70
2019-02-11T23:51:00.083Z,2.70
2019-02-11T23:53:23.366Z,2.80
2019-02-11T23:55:53.714Z,2.80
2019-02-11T23:58:23.575Z,2.90
